Strona główna
METAR-TAF:

METAR-TAF

Lotnisko :

Massena, Nowy Jork, Stany Zjednoczone

Szerokość geograficzna: 44-56-09N, Długość geograficzna: 074-50-44W, wysokość: 66 m

Aktualna obserwacja pogody

Raport powstał 49 minut temu, godzina 10:53 UTC
Cisza
Temperatura 13°C
Wilgotność 88%
Ciśnienie 1016 hPa
Widzialność: 16.1 km
bezchmurnie

METAR: KMSS 181053Z AUTO 00000KT 10SM CLR 13/11 A2999 RMK AO2 SLP155 T01280106

czas: 07:42 (11:42 UTC)

Prognoza

Raport powstał 6 godziny i 12 minut temu, godzina 05:30 UTC
Prognoza ważna od 18 godzina 06 UTC do 19 godzina 06 UTC
Wiatr kt od północ
Widzialność: 10 km
Rozproszone chmury na wysokości 20000 ft
Od 18 godzina 2200 UTC
Wiatr 4 kt z kierunków zmiennych
Widzialność: 10 km
Rozproszone chmury na wysokości 18000 ft

TAF: KMSS 180530Z 1806/1906 00000KT P6SM SCT200 FM182200 VRB04KT P6SM SCT180

Obserwacja i prognoza pogody dla ponad 4000 lotnisk (raport METAR i TAF).

Dostępne stacje oznaczono żółtymi i czerwonymi punktami na mapie.

Najedź kursorem aby zobaczyć nazwę stacji.

Kliknij aby zobaczyć obserwacje i prognozy pogody.

Aby zmienić mapę: kliknij na zielony przycisk z czarnym krzyżykiem, aby powiększyć; na zielony przycisk z myślnikiem, aby pomniejszyć; na zielone strzałki, aby przejść do map sąsiednich.


METAR-TAF: